Time;durP1;ratioP1;P1;durP2;ratioP2;P2;SDS_P1;SDS_P2;PMS_P1;PMS_P2;Temp;Humidity;BMP_temperature;BMP_pressure;BME280_temperature;BME280_humidity;BME280_pressure;Samples;Min_cycle;Max_cycle;Signal;HPM_P1;HPM_P2
2023/08/05 00:02:16;;;;;;;;;;;;;;;15.18;97.60;101657.84;5039652;28;19913;-57
2023/08/05 00:04:42;;;;;;;;;;;;;;;15.21;97.42;101647.41;5046194;28;19923;-57
2023/08/05 00:07:07;;;;;;;;;;;;;;;15.24;97.13;101647.47;5038773;28;19921;-57
2023/08/05 00:09:32;;;;;;;;;;;;;;;15.24;97.28;101644.84;5046043;28;20325;-57
2023/08/05 00:11:57;;;;;;;;;;;;;;;15.23;97.32;101645.69;5043851;28;19924;-56
2023/08/05 00:14:22;;;;;;;;;;;;;;;15.23;97.64;101645.69;5037726;28;19912;-57
2023/08/05 00:16:47;;;;;;;;;;;;;;;15.24;97.75;101635.22;5046689;28;20333;-57
2023/08/05 00:19:13;;;;;;;;;;;;;;;15.25;97.15;101631.72;5045910;28;20359;-57
2023/08/05 00:21:38;;;;;;;;;;;;;;;15.24;97.77;101635.22;5044093;28;19956;-58
2023/08/05 00:24:03;;;;;;;;;;;;;;;15.24;97.74;101634.34;5047818;28;19912;-57
2023/08/05 00:26:28;;;;;;;;;;;;;;;15.25;97.80;101638.72;5043302;28;20359;-57
2023/08/05 00:28:54;;;;;;;;;;;;;;;15.26;97.94;101632.59;5039497;28;19920;-57
2023/08/05 00:31:19;;;;;;;;;;;;;;;15.27;97.89;101634.38;5045159;28;20333;-57
2023/08/05 00:33:45;;;;;;;;;;;;;;;15.25;97.77;101630.84;5044335;28;19923;-57
2023/08/05 00:36:11;;;;;;;;;;;;;;;15.22;97.86;101625.53;5045052;28;19950;-57
2023/08/05 00:38:36;;;;;;;;;;;;;;;15.20;98.28;101622.88;5024205;28;20371;-57
2023/08/05 00:41:01;;;;;;;;;;;;;;;15.22;98.74;101623.81;5038433;28;19923;-58
2023/08/05 00:43:26;;;;;;;;;;;;;;;15.24;98.67;101618.59;5043829;28;19918;-57
2023/08/05 00:45:52;;;;;;;;;;;;;;;15.23;98.04;101627.31;5039990;28;19958;-57
2023/08/05 00:48:17;;;;;;;;;;;;;;;15.16;98.04;101620.19;5045303;28;20418;-57
2023/08/05 00:50:42;;;;;;;;;;;;;;;15.10;98.55;101613.97;5041224;28;19916;-58
2023/08/05 00:53:08;;;;;;;;;;;;;;;15.06;98.86;101609.53;5049442;28;19921;-57
2023/08/05 00:55:33;;;;;;;;;;;;;;;15.04;98.74;101603.38;5046421;28;19917;-57
2023/08/05 00:57:59;;;;;;;;;;;;;;;15.02;99.40;101607.72;5029078;28;20306;-57
2023/08/05 01:00:24;;;;;;;;;;;;;;;15.03;100.00;101598.09;5036260;28;20043;-57
2023/08/05 01:02:49;;;;;;;;;;;;;;;15.07;99.93;101598.16;5044152;28;19967;-57
2023/08/05 01:05:14;;;;;;;;;;;;;;;15.09;99.82;101599.09;5042927;28;19936;-57
2023/08/05 01:07:43;;;;;;;;;;;;;;;15.09;100.00;101599.09;5042588;28;19920;-57
2023/08/05 01:10:09;;;;;;;;;;;;;;;15.07;99.65;101598.16;5042446;28;19920;-58
2023/08/05 01:12:34;;;;;;;;;;;;;;;15.04;99.19;101603.38;5043785;28;19932;-57
2023/08/05 01:14:59;;;;;;;;;;;;;;;14.99;99.73;101594.53;5010403;28;20004;-57
2023/08/05 01:17:25;;;;;;;;;;;;;;;15.00;99.87;101587.53;5044615;28;19928;-57
2023/08/05 01:19:50;;;;;;;;;;;;;;;15.00;100.00;101587.53;5044444;28;19959;-57
2023/08/05 01:22:24;;;;;;;;;;;;;;;14.97;100.00;101590.13;5043590;28;20015;-57
2023/08/05 01:25:09;;;;;;;;;;;;;;;14.95;100.00;101584.84;5046264;28;19951;-57
2023/08/05 01:27:34;;;;;;;;;;;;;;;14.97;100.00;101588.38;5051182;28;19952;-57
2023/08/05 01:30:00;;;;;;;;;;;;;;;14.96;99.75;101586.59;5046301;28;19952;-57
2023/08/05 01:32:25;;;;;;;;;;;;;;;14.93;100.00;101589.16;5045894;28;20121;-57
2023/08/05 01:34:51;;;;;;;;;;;;;;;14.88;99.94;101583.84;5046211;28;19913;-57
2023/08/05 01:37:16;;;;;;;;;;;;;;;14.87;100.00;101587.31;5048836;28;19913;-57
2023/08/05 01:39:41;;;;;;;;;;;;;;;14.86;99.87;101589.91;5050948;28;19913;-57
2023/08/05 01:42:07;;;;;;;;;;;;;;;14.83;100.00;101588.13;5052597;28;19921;-57
2023/08/05 01:44:32;;;;;;;;;;;;;;;14.80;100.00;101574.94;5048688;28;19913;-57
2023/08/05 01:46:57;;;;;;;;;;;;;;;14.78;100.00;101588.03;5034869;28;19909;-57
2023/08/05 01:49:23;;;;;;;;;;;;;;;14.77;100.00;101590.63;5051650;28;19912;-57
2023/08/05 01:51:48;;;;;;;;;;;;;;;14.77;100.00;101588.00;5044256;28;19928;-58
2023/08/05 01:54:13;;;;;;;;;;;;;;;14.72;100.00;101589.69;5045967;28;19965;-57
2023/08/05 01:56:38;;;;;;;;;;;;;;;14.66;100.00;101590.44;5045192;28;20148;-57
2023/08/05 01:59:03;;;;;;;;;;;;;;;14.64;100.00;101581.66;5049583;28;20003;-57
2023/08/05 02:01:41;;;;;;;;;;;;;;;14.64;100.00;101579.03;5043293;28;19917;-57
2023/08/05 02:04:06;;;;;;;;;;;;;;;14.63;100.00;101579.91;5050031;28;19916;-57
2023/08/05 02:06:31;;;;;;;;;;;;;;;14.61;100.00;101578.94;5038573;28;19975;-57
2023/08/05 02:08:56;;;;;;;;;;;;;;;14.59;100.00;101581.53;5043737;28;19920;-58
2023/08/05 02:11:22;;;;;;;;;;;;;;;14.55;100.00;101586.69;5048543;28;20363;-57
2023/08/05 02:13:47;;;;;;;;;;;;;;;14.50;100.00;101583.13;5045195;28;19916;-56
2023/08/05 02:16:12;;;;;;;;;;;;;;;14.46;100.00;101584.78;5048066;28;19916;-57
2023/08/05 02:18:37;;;;;;;;;;;;;;;14.43;100.00;101596.09;5052295;28;19924;-57
2023/08/05 02:21:02;;;;;;;;;;;;;;;14.41;100.00;101586.41;5041852;28;19913;-58
2023/08/05 02:23:28;;;;;;;;;;;;;;;14.42;100.00;101576.00;5042901;28;20459;-57
2023/08/05 02:25:53;;;;;;;;;;;;;;;14.39;100.00;101578.53;5047829;28;19904;-57
2023/08/05 02:28:18;;;;;;;;;;;;;;;14.37;100.00;101580.25;5039150;28;19914;-58
2023/08/05 02:30:43;;;;;;;;;;;;;;;14.39;100.00;101580.28;5045768;28;20420;-57
2023/08/05 02:33:08;;;;;;;;;;;;;;;14.40;100.00;101580.28;5044791;28;19917;-57
2023/08/05 02:35:34;;;;;;;;;;;;;;;14.38;100.00;101566.28;5043825;28;19912;-57
2023/08/05 02:37:59;;;;;;;;;;;;;;;14.36;100.00;101565.34;5041155;28;19912;-58
2023/08/05 02:40:24;;;;;;;;;;;;;;;14.34;100.00;101559.22;5045545;28;20430;-57
2023/08/05 02:42:49;;;;;;;;;;;;;;;14.33;100.00;101561.81;5042250;28;19913;-57
2023/08/05 02:45:14;;;;;;;;;;;;;;;14.31;100.00;101563.50;5046340;28;19912;-57
2023/08/05 02:47:43;;;;;;;;;;;;;;;14.25;100.00;101566.88;5044750;28;19913;-57
2023/08/05 02:50:09;;;;;;;;;;;;;;;14.22;100.00;101561.56;5041759;28;19917;-57
2023/08/05 02:52:34;;;;;;;;;;;;;;;14.14;100.00;101560.56;5038722;28;19925;-57
2023/08/05 02:55:00;;;;;;;;;;;;;;;14.07;100.00;101563.03;5047546;28;19938;-56
2023/08/05 02:57:25;;;;;;;;;;;;;;;14.06;100.00;101566.53;5046113;28;20031;-57
2023/08/05 02:59:50;;;;;;;;;;;;;;;14.06;100.00;101547.28;5049791;28;19913;-57
2023/08/05 03:02:15;;;;;;;;;;;;;;;14.05;100.00;101558.63;5047119;28;19917;-57
2023/08/05 03:04:40;;;;;;;;;;;;;;;14.04;100.00;101556.84;5043878;28;20363;-57
2023/08/05 03:07:06;;;;;;;;;;;;;;;14.04;100.00;101552.50;5048073;28;19917;-57
2023/08/05 03:09:31;;;;;;;;;;;;;;;14.04;100.00;101551.63;5046259;28;20416;-57
2023/08/05 03:11:57;;;;;;;;;;;;;;;14.04;100.00;101538.50;5047371;28;19925;-57
2023/08/05 03:14:22;;;;;;;;;;;;;;;13.97;100.00;101532.25;5044018;28;20516;-57
2023/08/05 03:16:48;;;;;;;;;;;;;;;13.90;100.00;101533.88;5050064;28;19904;-57
2023/08/05 03:19:13;;;;;;;;;;;;;;;13.87;100.00;101532.91;5041141;28;20003;-57
2023/08/05 03:21:38;;;;;;;;;;;;;;;13.88;100.00;101532.06;5044697;28;19917;-57
2023/08/05 03:24:03;;;;;;;;;;;;;;;13.90;100.00;101530.34;5046452;28;19920;-57
2023/08/05 03:26:29;;;;;;;;;;;;;;;13.91;100.00;101526.88;5045672;28;20211;-57
2023/08/05 03:28:54;;;;;;;;;;;;;;;13.91;100.00;101527.75;5045193;28;20294;-57
2023/08/05 03:31:19;;;;;;;;;;;;;;;13.92;100.00;101528.66;5050309;28;19909;-57
2023/08/05 03:33:45;;;;;;;;;;;;;;;13.89;100.00;101524.25;5045947;28;19952;-57
2023/08/05 03:36:10;;;;;;;;;;;;;;;13.86;100.00;101526.81;5047075;28;20294;-57
2023/08/05 03:38:35;;;;;;;;;;;;;;;13.87;100.00;101525.06;5047447;28;19916;-57
2023/08/05 03:41:06;;;;;;;;;;;;;;;13.86;100.00;101512.78;5043226;28;20378;-57
2023/08/05 03:43:32;;;;;;;;;;;;;;;13.85;100.00;101511.06;5039148;28;19927;-57
2023/08/05 03:45:57;;;;;;;;;;;;;;;13.87;100.00;101510.22;5044165;28;19912;-57
2023/08/05 03:48:23;;;;;;;;;;;;;;;13.89;100.00;101498.03;5045386;28;19970;-57
2023/08/05 03:50:48;;;;;;;;;;;;;;;13.90;100.00;101491.06;5046525;28;19919;-57
2023/08/05 03:53:13;;;;;;;;;;;;;;;13.90;100.00;101493.69;5041047;28;19921;-57
2023/08/05 03:55:38;;;;;;;;;;;;;;;13.89;100.00;101494.56;5045000;28;19916;-57
2023/08/05 03:58:07;;;;;;;;;;;;;;;13.85;100.00;101490.09;5048343;28;19912;-57
2023/08/05 04:00:32;;;;;;;;;;;;;;;13.75;100.00;101491.63;5041742;28;19913;-57
2023/08/05 04:02:58;;;;;;;;;;;;;;;13.72;100.00;101495.06;5047528;28;19923;-57
2023/08/05 04:05:23;;;;;;;;;;;;;;;13.70;100.00;101483.69;5046138;28;19919;-57
2023/08/05 04:07:48;;;;;;;;;;;;;;;13.68;100.00;101480.13;5047742;28;19920;-57
2023/08/05 04:10:13;;;;;;;;;;;;;;;13.64;100.00;101486.16;5047068;28;19912;-57
2023/08/05 04:12:38;;;;;;;;;;;;;;;13.62;100.00;101482.63;5027028;28;19936;-57
2023/08/05 04:15:06;;;;;;;;;;;;;;;13.63;100.00;101487.03;5049063;28;20427;-57
2023/08/05 04:17:31;;;;;;;;;;;;;;;13.60;100.00;101489.59;5045806;28;19929;-58
2023/08/05 04:19:56;;;;;;;;;;;;;;;13.56;100.00;101490.38;5046351;28;20429;-57
2023/08/05 04:22:24;;;;;;;;;;;;;;;13.56;100.00;101492.97;5039456;28;19913;-57
2023/08/05 04:24:49;;;;;;;;;;;;;;;13.55;100.00;101480.72;5047461;28;19904;-57
2023/08/05 04:27:14;;;;;;;;;;;;;;;13.53;100.00;101462.38;5043115;28;19908;-57
2023/08/05 04:29:40;;;;;;;;;;;;;;;13.52;100.00;101464.97;5046351;28;19913;-57
2023/08/05 04:32:05;;;;;;;;;;;;;;;13.51;100.00;101461.47;5038498;28;19952;-57
2023/08/05 04:34:35;;;;;;;;;;;;;;;13.49;100.00;101446.56;5040826;28;19908;-57
2023/08/05 04:37:14;;;;;;;;;;;;;;;13.47;100.00;101443.03;5048949;28;19999;-57
2023/08/05 04:39:39;;;;;;;;;;;;;;;13.44;100.00;101448.19;5045997;28;20389;-57
2023/08/05 04:42:05;;;;;;;;;;;;;;;13.45;100.00;101447.34;5040187;28;19917;-57
2023/08/05 04:44:30;;;;;;;;;;;;;;;13.45;100.00;101437.75;5041668;28;19920;-57
2023/08/05 04:46:55;;;;;;;;;;;;;;;13.49;100.00;101436.09;5040416;28;20390;-57
2023/08/05 04:49:21;;;;;;;;;;;;;;;13.48;100.00;101422.09;5046264;28;20393;-57
2023/08/05 04:51:46;;;;;;;;;;;;;;;13.47;100.00;101435.16;5046667;28;19912;-57
2023/08/05 04:54:11;;;;;;;;;;;;;;;13.46;100.00;101431.69;5045700;28;19922;-57
2023/08/05 04:56:36;;;;;;;;;;;;;;;13.49;100.00;101431.75;5038918;28;19909;-57
2023/08/05 04:59:01;;;;;;;;;;;;;;;13.52;100.00;101430.94;5044808;28;20358;-57
2023/08/05 05:01:27;;;;;;;;;;;;;;;13.54;100.00;101431.81;5046934;28;19912;-57
2023/08/05 05:03:52;;;;;;;;;;;;;;;13.55;100.00;101431.84;5032186;28;19924;-57
2023/08/05 05:06:18;;;;;;;;;;;;;;;13.55;100.00;101430.97;5047843;28;20363;-57
2023/08/05 05:08:43;;;;;;;;;;;;;;;13.52;100.00;101441.41;5041185;28;20363;-57
2023/08/05 05:11:08;;;;;;;;;;;;;;;13.52;100.00;101433.53;5042776;28;20094;-57
2023/08/05 05:13:33;;;;;;;;;;;;;;;13.52;100.00;101436.16;5039338;28;19979;-57
2023/08/05 05:16:01;;;;;;;;;;;;;;;13.48;100.00;101423.84;5045871;28;20015;-57
2023/08/05 05:18:26;;;;;;;;;;;;;;;13.44;100.00;101424.63;5047021;28;19921;-57
2023/08/05 05:20:51;;;;;;;;;;;;;;;13.41;100.00;101414.09;5044945;28;20405;-58
2023/08/05 05:23:17;;;;;;;;;;;;;;;13.39;100.00;101428.03;5043942;28;19959;-57
2023/08/05 05:25:42;;;;;;;;;;;;;;;13.43;100.00;101430.75;5045484;28;20409;-57
2023/08/05 05:28:07;;;;;;;;;;;;;;;13.49;100.00;101436.09;5043535;28;19908;-56
2023/08/05 05:30:34;;;;;;;;;;;;;;;13.51;100.00;101426.53;5044899;28;19979;-57
2023/08/05 05:32:59;;;;;;;;;;;;;;;13.50;100.00;101422.16;5037015;28;19962;-57
2023/08/05 05:35:24;;;;;;;;;;;;;;;13.50;100.00;101419.56;5039624;28;19916;-58
2023/08/05 05:37:49;;;;;;;;;;;;;;;13.51;100.00;101411.72;5047077;28;20280;-57
2023/08/05 05:40:15;;;;;;;;;;;;;;;13.57;100.00;101413.59;5040884;28;19928;-57
2023/08/05 05:42:40;;;;;;;;;;;;;;;13.61;100.00;101411.91;5048180;28;19920;-57
2023/08/05 05:45:05;;;;;;;;;;;;;;;13.65;100.00;101409.38;5043337;28;20052;-57
2023/08/05 05:47:31;;;;;;;;;;;;;;;13.70;100.00;101419.94;5033976;28;20263;-57
2023/08/05 05:49:56;;;;;;;;;;;;;;;13.75;100.00;101405.19;5040700;28;19928;-56
2023/08/05 05:52:21;;;;;;;;;;;;;;;13.80;100.00;101406.19;5046529;28;19925;-58
2023/08/05 05:54:46;;;;;;;;;;;;;;;13.83;100.00;101402.72;5049501;28;20010;-57
2023/08/05 05:57:11;;;;;;;;;;;;;;;13.85;100.00;101404.53;5052278;28;19932;-58
2023/08/05 05:59:39;;;;;;;;;;;;;;;13.88;100.00;101403.72;5045737;28;19924;-57
2023/08/05 06:02:05;;;;;;;;;;;;;;;13.94;100.00;101401.19;5046859;28;20015;-57
2023/08/05 06:04:30;;;;;;;;;;;;;;;13.98;100.00;101402.16;5047103;28;20275;-57
2023/08/05 06:06:55;;;;;;;;;;;;;;;14.02;100.00;101409.19;5033350;28;20371;-57
2023/08/05 06:09:21;;;;;;;;;;;;;;;14.07;100.00;101397.06;5047024;28;19913;-57
2023/08/05 06:11:46;;;;;;;;;;;;;;;14.09;100.00;101396.25;5050470;28;19921;-57
2023/08/05 06:14:12;;;;;;;;;;;;;;;14.13;100.00;101391.94;5047020;28;19999;-58
2023/08/05 06:16:37;;;;;;;;;;;;;;;14.18;100.00;101389.38;5047460;28;19913;-57
2023/08/05 06:19:03;;;;;;;;;;;;;;;14.24;100.00;101400.00;5047525;28;19924;-58
2023/08/05 06:21:28;;;;;;;;;;;;;;;14.30;100.00;101392.22;5036130;28;19975;-58
2023/08/05 06:23:53;;;;;;;;;;;;;;;14.37;100.00;101390.59;5023727;28;19913;-58
2023/08/05 06:26:18;;;;;;;;;;;;;;;14.43;100.00;101390.69;5026733;28;19919;-57
2023/08/05 06:28:44;;;;;;;;;;;;;;;14.53;100.00;101391.75;5037848;28;19919;-58
2023/08/05 06:31:09;;;;;;;;;;;;;;;14.60;100.00;101391.84;5045793;28;19999;-56
2023/08/05 06:33:34;;;;;;;;;;;;;;;14.64;100.00;101384.94;5039361;28;19964;-58
2023/08/05 06:35:59;;;;;;;;;;;;;;;14.72;100.00;101382.44;5030177;28;19919;-57
2023/08/05 06:38:26;;;;;;;;;;;;;;;14.77;100.00;101386.00;5043250;28;19916;-58
2023/08/05 06:40:51;;;;;;;;;;;;;;;14.84;100.00;101387.84;5049890;28;20357;-58
2023/08/05 06:43:17;;;;;;;;;;;;;;;14.91;100.00;101397.59;5040697;28;20367;-58
2023/08/05 06:45:42;;;;;;;;;;;;;;;14.94;100.00;101384.50;5047028;28;19920;-58
2023/08/05 06:48:07;;;;;;;;;;;;;;;14.98;100.00;101381.94;5045451;28;20363;-58
2023/08/05 06:50:32;;;;;;;;;;;;;;;15.02;100.00;101386.34;5045910;28;19912;-58
2023/08/05 06:52:58;;;;;;;;;;;;;;;15.04;100.00;101375.03;5045773;28;20371;-58
2023/08/05 06:55:23;;;;;;;;;;;;;;;15.08;100.00;101371.59;5049320;28;20030;-58
2023/08/05 06:57:48;;;;;;;;;;;;;;;15.14;100.00;101370.78;5035692;28;19913;-57
2023/08/05 07:00:14;;;;;;;;;;;;;;;15.20;100.00;101368.25;5047308;28;19920;-58
2023/08/05 07:02:39;;;;;;;;;;;;;;;15.24;100.00;101361.28;5041411;28;19935;-58
2023/08/05 07:05:04;;;;;;;;;;;;;;;15.26;100.00;101359.56;5046143;28;20390;-58
2023/08/05 07:07:32;;;;;;;;;;;;;;;15.27;100.00;101358.72;5047363;28;20272;-58
2023/08/05 07:10:03;;;;;;;;;;;;;;;15.29;100.00;101359.59;5046860;28;19920;-58
2023/08/05 07:12:28;;;;;;;;;;;;;;;15.33;100.00;101350.03;5046834;28;20106;-58
2023/08/05 07:14:53;;;;;;;;;;;;;;;15.37;100.00;101355.31;5042657;28;19924;-58
2023/08/05 07:17:19;;;;;;;;;;;;;;;15.45;100.00;101350.16;5044354;28;19912;-58
2023/08/05 07:19:44;;;;;;;;;;;;;;;15.53;100.00;101347.63;5040022;28;19913;-58
2023/08/05 07:22:09;;;;;;;;;;;;;;;15.59;100.00;101347.69;5048025;28;19935;-60
2023/08/05 07:24:34;;;;;;;;;;;;;;;15.64;100.00;101346.88;5044542;28;19965;-58
2023/08/05 07:26:59;;;;;;;;;;;;;;;15.70;100.00;101346.06;5045769;28;19974;-58
2023/08/05 07:29:25;;;;;;;;;;;;;;;15.78;100.00;101344.41;5046042;28;19938;-60
2023/08/05 07:31:50;;;;;;;;;;;;;;;15.83;100.00;101347.13;5045358;28;19932;-60
2023/08/05 07:34:16;;;;;;;;;;;;;;;15.86;100.00;101352.41;5043981;28;19912;-60
2023/08/05 07:36:43;;;;;;;;;;;;;;;15.93;100.00;101358.56;5043542;28;20371;-59
2023/08/05 07:39:08;;;;;;;;;;;;;;;16.02;100.00;101349.91;5044934;28;19923;-60
2023/08/05 07:41:33;;;;;;;;;;;;;;;16.04;100.00;101349.06;5048089;28;19912;-60
2023/08/05 07:44:00;;;;;;;;;;;;;;;16.08;100.00;101340.34;5050205;28;19912;-59
2023/08/05 07:46:26;;;;;;;;;;;;;;;16.19;100.00;101340.41;5051153;28;20521;-59
2023/08/05 07:48:56;;;;;;;;;;;;;;;16.21;100.00;101338.69;5051165;28;19962;-60
2023/08/05 07:51:23;;;;;;;;;;;;;;;16.24;100.00;101338.72;5042297;28;19921;-60
2023/08/05 07:53:48;;;;;;;;;;;;;;;16.28;100.00;101331.72;5044561;28;20014;-57
2023/08/05 07:56:14;;;;;;;;;;;;;;;16.33;100.00;101330.88;5039994;28;20295;-57
2023/08/05 07:58:42;;;;;;;;;;;;;;;16.47;100.00;101324.88;5034324;28;19913;-57
2023/08/05 08:01:07;;;;;;;;;;;;;;;16.63;100.00;101312.69;5040809;28;19995;-57
2023/08/05 08:03:33;;;;;;;;;;;;;;;16.72;100.00;101302.22;5048609;28;20439;-57
2023/08/05 08:05:59;;;;;;;;;;;;;;;16.80;100.00;101303.13;5040704;28;19913;-57
2023/08/05 08:08:24;;;;;;;;;;;;;;;16.94;100.00;101299.72;5045667;28;19951;-57
2023/08/05 08:10:49;;;;;;;;;;;;;;;17.04;99.09;101291.84;5042411;28;19920;-58
2023/08/05 08:13:14;;;;;;;;;;;;;;;17.15;99.84;101294.53;5040021;28;19975;-57
2023/08/05 08:15:39;;;;;;;;;;;;;;;17.25;97.38;101297.19;5041406;28;19917;-57
2023/08/05 08:18:04;;;;;;;;;;;;;;;17.30;99.35;101295.47;5038368;28;19921;-57
2023/08/05 08:20:30;;;;;;;;;;;;;;;17.32;95.78;101284.06;5032348;28;20464;-57
2023/08/05 08:22:55;;;;;;;;;;;;;;;17.35;95.58;101281.44;5044618;28;19916;-58
2023/08/05 08:25:20;;;;;;;;;;;;;;;17.33;94.86;101283.19;5039205;28;19916;-57
2023/08/05 08:27:45;;;;;;;;;;;;;;;17.34;94.99;101271.78;5047555;28;19908;-57
2023/08/05 08:30:12;;;;;;;;;;;;;;;17.30;95.85;101275.28;5043681;28;20397;-57
2023/08/05 08:32:37;;;;;;;;;;;;;;;17.27;94.33;101271.75;5044133;28;19921;-57
2023/08/05 08:35:03;;;;;;;;;;;;;;;17.29;95.37;101280.53;5041624;28;19912;-57
2023/08/05 08:37:28;;;;;;;;;;;;;;;17.42;96.35;101266.50;5042081;28;20363;-57
2023/08/05 08:39:53;;;;;;;;;;;;;;;17.54;94.82;101266.53;5040860;28;19935;-58
2023/08/05 08:42:20;;;;;;;;;;;;;;;17.58;93.72;101256.00;5038394;28;20359;-58
2023/08/05 08:44:45;;;;;;;;;;;;;;;17.66;95.66;101254.28;5036011;28;19920;-58
2023/08/05 08:47:10;;;;;;;;;;;;;;;17.80;94.03;101247.25;5020655;28;19909;-58
2023/08/05 08:49:36;;;;;;;;;;;;;;;17.87;93.67;101237.56;5044201;28;19919;-58
2023/08/05 08:52:02;;;;;;;;;;;;;;;17.93;93.38;101231.44;5041507;28;20364;-58
2023/08/05 08:54:28;;;;;;;;;;;;;;;17.97;90.58;101236.72;5031841;28;20010;-57
2023/08/05 08:56:53;;;;;;;;;;;;;;;18.01;89.65;101234.97;5035008;28;19912;-57
2023/08/05 08:59:18;;;;;;;;;;;;;;;18.06;91.49;101231.44;5044253;28;20260;-58
2023/08/05 09:01:45;;;;;;;;;;;;;;;18.18;90.72;101227.03;5043862;28;20359;-58
2023/08/05 09:04:10;;;;;;;;;;;;;;;18.22;91.25;101231.44;5030295;28;19905;-58
2023/08/05 09:06:38;;;;;;;;;;;;;;;18.28;88.26;101230.50;5048954;28;19923;-58
2023/08/05 09:09:03;;;;;;;;;;;;;;;18.33;89.89;101220.84;5050827;28;19904;-58
2023/08/05 09:11:28;;;;;;;;;;;;;;;18.38;89.32;101216.44;5030384;28;20344;-57
2023/08/05 09:13:53;;;;;;;;;;;;;;;18.40;87.51;101217.31;5047167;28;19917;-58
2023/08/05 09:16:19;;;;;;;;;;;;;;;18.40;89.39;101209.38;5035015;28;19920;-58
2023/08/05 09:18:51;;;;;;;;;;;;;;;18.41;87.67;101197.97;5033643;28;19921;-58
2023/08/05 09:21:23;;;;;;;;;;;;;;;18.38;88.67;101195.34;5042241;28;19991;-58
2023/08/05 09:23:56;;;;;;;;;;;;;;;18.39;90.16;101194.44;5046056;28;19901;-58
2023/08/05 09:26:28;;;;;;;;;;;;;;;18.41;89.65;101184.78;5042841;28;19974;-58
2023/08/05 09:28:54;;;;;;;;;;;;;;;18.32;87.01;101182.16;5054176;28;19917;-57
2023/08/05 09:31:20;;;;;;;;;;;;;;;18.28;89.10;101180.38;5053356;28;19908;-57
2023/08/05 09:33:45;;;;;;;;;;;;;;;18.30;89.53;101173.38;5053253;28;19920;-57
2023/08/05 09:36:11;;;;;;;;;;;;;;;18.22;86.34;101173.41;5049374;28;19919;-58
2023/08/05 09:38:38;;;;;;;;;;;;;;;18.20;88.52;101164.59;5053853;28;20327;-58
2023/08/05 09:41:04;;;;;;;;;;;;;;;18.20;89.48;101168.09;5053796;28;19915;-57
2023/08/05 09:43:34;;;;;;;;;;;;;;;18.21;89.75;101169.00;5052563;28;19916;-58
2023/08/05 09:46:02;;;;;;;;;;;;;;;18.22;89.74;101163.72;5048524;28;19924;-58
2023/08/05 09:48:30;;;;;;;;;;;;;;;18.24;89.52;101159.31;5037244;28;20291;-58
2023/08/05 09:50:58;;;;;;;;;;;;;;;18.25;89.30;101160.19;5033649;28;19913;-57
2023/08/05 09:53:29;;;;;;;;;;;;;;;18.18;88.05;101155.81;5036264;28;19921;-58
2023/08/05 09:55:54;;;;;;;;;;;;;;;18.19;88.49;101147.00;5050441;28;19913;-57
2023/08/05 09:58:20;;;;;;;;;;;;;;;18.15;87.27;101143.53;5048686;28;19978;-56
2023/08/05 10:00:49;;;;;;;;;;;;;;;18.21;87.90;101140.00;5033926;28;19912;-57
2023/08/05 10:03:14;;;;;;;;;;;;;;;18.22;87.62;101137.34;5035341;28;19917;-58
2023/08/05 10:05:43;;;;;;;;;;;;;;;18.22;88.16;101137.34;5053376;28;19911;-57
2023/08/05 10:08:09;;;;;;;;;;;;;;;18.21;87.92;101122.38;5052360;28;19913;-57
2023/08/05 10:10:35;;;;;;;;;;;;;;;18.18;87.03;101132.09;5053054;28;19911;-57
2023/08/05 10:13:09;;;;;;;;;;;;;;;18.17;87.29;101120.63;5052476;28;20314;-58
2023/08/05 10:15:40;;;;;;;;;;;;;;;18.21;88.40;101124.16;5033565;28;19974;-57
2023/08/05 10:18:14;;;;;;;;;;;;;;;18.30;87.84;101118.84;5043816;28;20137;-58
2023/08/05 10:20:39;;;;;;;;;;;;;;;18.34;86.96;101115.31;5051029;28;19919;-57
2023/08/05 10:23:06;;;;;;;;;;;;;;;18.34;86.69;101111.81;5052432;28;19987;-58
2023/08/05 10:25:37;;;;;;;;;;;;;;;18.32;87.67;101119.72;5033089;28;19916;-58
2023/08/05 10:28:02;;;;;;;;;;;;;;;18.28;87.70;101111.81;5044350;28;19921;-58
2023/08/05 10:30:28;;;;;;;;;;;;;;;18.24;87.98;101122.38;5052272;28;19934;-57
2023/08/05 10:32:54;;;;;;;;;;;;;;;18.19;89.13;101115.34;5034604;28;20310;-57
2023/08/05 10:35:27;;;;;;;;;;;;;;;18.16;89.01;101108.34;5046419;28;20005;-57
2023/08/05 10:38:11;;;;;;;;;;;;;;;18.11;88.45;101110.13;5051663;28;20301;-57
2023/08/05 10:40:37;;;;;;;;;;;;;;;18.05;89.22;101096.97;5052772;28;19916;-57
2023/08/05 10:43:02;;;;;;;;;;;;;;;18.04;89.70;101106.63;5050451;28;20353;-58
2023/08/05 10:45:27;;;;;;;;;;;;;;;18.04;90.39;101097.84;5032673;28;19909;-58
2023/08/05 10:47:52;;;;;;;;;;;;;;;18.13;89.94;101102.19;5040387;28;19919;-58
2023/08/05 10:50:18;;;;;;;;;;;;;;;18.14;90.35;101110.09;5033341;28;19940;-58
2023/08/05 10:52:44;;;;;;;;;;;;;;;18.18;89.03;101100.44;5032302;28;19918;-58
2023/08/05 10:55:12;;;;;;;;;;;;;;;18.11;86.57;101101.34;5050830;28;19913;-58
2023/08/05 10:57:37;;;;;;;;;;;;;;;18.07;88.27;101096.09;5052211;28;20191;-57
2023/08/05 11:00:03;;;;;;;;;;;;;;;18.07;89.10;101101.34;5052415;28;20120;-58
2023/08/05 11:02:28;;;;;;;;;;;;;;;18.05;88.79;101094.31;5052298;28;20363;-58
2023/08/05 11:05:07;;;;;;;;;;;;;;;18.04;87.91;101084.66;5045432;28;19916;-58
2023/08/05 11:07:39;;;;;;;;;;;;;;;18.10;87.02;101087.25;5040664;28;19924;-58
2023/08/05 11:10:05;;;;;;;;;;;;;;;18.23;86.19;101091.63;5043159;28;20381;-58
2023/08/05 11:12:30;;;;;;;;;;;;;;;18.30;86.98;101088.97;5023006;28;19917;-58
2023/08/05 11:14:56;;;;;;;;;;;;;;;18.40;86.38;101085.38;5045111;28;19948;-58
2023/08/05 11:17:21;;;;;;;;;;;;;;;18.48;85.43;101078.31;5038702;28;19920;-59
2023/08/05 11:19:50;;;;;;;;;;;;;;;18.53;84.94;101079.16;5043787;28;19912;-58
2023/08/05 11:22:29;;;;;;;;;;;;;;;18.45;85.45;101077.44;5025051;28;19986;-58
2023/08/05 11:24:58;;;;;;;;;;;;;;;18.39;85.03;101073.97;5026824;28;20467;-57
2023/08/05 11:27:38;;;;;;;;;;;;;;;18.38;83.55;101052.88;5044143;28;19916;-58
2023/08/05 11:30:13;;;;;;;;;;;;;;;18.29;84.18;101052.91;5047097;28;20017;-57
2023/08/05 11:32:48;;;;;;;;;;;;;;;18.23;84.45;101057.34;5048347;28;19936;-58
2023/08/05 11:35:14;;;;;;;;;;;;;;;18.19;84.83;101047.69;5047242;28;19913;-58
2023/08/05 11:37:39;;;;;;;;;;;;;;;18.16;85.32;101049.44;5049957;28;19912;-58
2023/08/05 11:40:05;;;;;;;;;;;;;;;18.15;85.25;101038.03;5050736;28;19921;-59
2023/08/05 11:42:30;;;;;;;;;;;;;;;18.13;83.74;101045.06;5050005;28;19920;-58
2023/08/05 11:44:55;;;;;;;;;;;;;;;18.04;84.56;101038.06;5043712;28;19924;-58
2023/08/05 11:47:20;;;;;;;;;;;;;;;18.03;84.73;101038.06;5049064;28;19916;-58
2023/08/05 11:49:54;;;;;;;;;;;;;;;18.06;84.08;101036.31;5037261;28;19919;-59
2023/08/05 11:52:19;;;;;;;;;;;;;;;17.89;84.54;101027.56;5047999;28;19916;-58
2023/08/05 11:54:54;;;;;;;;;;;;;;;17.83;83.85;101024.91;5036015;28;19917;-58
2023/08/05 11:57:19;;;;;;;;;;;;;;;17.79;84.97;101026.72;5049924;28;19915;-58
2023/08/05 11:59:48;;;;;;;;;;;;;;;17.80;83.67;101025.84;5048997;28;19912;-58
2023/08/05 12:04:49;;;;;;;;;;;;;;;17.70;83.17;101019.72;6151246;22;19922;-58
2023/08/05 12:07:16;;;;;;;;;;;;;;;17.63;82.04;101019.75;5152857;22;19921;-58
2023/08/05 12:09:45;;;;;;;;;;;;;;;17.56;82.00;101022.38;5017197;28;19913;-58
2023/08/05 12:12:17;;;;;;;;;;;;;;;17.48;81.31;101024.16;5010085;28;19917;-58
2023/08/05 12:14:42;;;;;;;;;;;;;;;17.37;82.06;101005.72;5010717;28;20304;-58
2023/08/05 12:17:09;;;;;;;;;;;;;;;17.30;83.43;101001.34;5010645;28;19913;-58
2023/08/05 12:19:34;;;;;;;;;;;;;;;17.28;84.04;101004.84;5007224;28;20001;-58
2023/08/05 12:22:00;;;;;;;;;;;;;;;17.24;83.82;100997.88;5008945;28;19992;-58
2023/08/05 12:24:25;;;;;;;;;;;;;;;17.11;84.64;100989.97;5012007;28;19913;-58
2023/08/05 12:26:50;;;;;;;;;;;;;;;17.04;85.34;100990.84;5010340;28;19917;-58
2023/08/05 12:29:15;;;;;;;;;;;;;;;16.99;84.74;100979.47;5008136;28;20003;-58